sensor_id;sensor_type;location;lat;lon;timestamp;pressure;altitude;pressure_sealevel;temperature;humidity
58686;BME280;44465;53.206;-6.106;2023-02-28T00:01:12;103593.41;;;20.09;52.57
58686;BME280;44465;53.206;-6.106;2023-02-28T00:03:38;103566.75;;;19.95;52.42
58686;BME280;44465;53.206;-6.106;2023-02-28T00:06:05;103589.84;;;20.07;52.49
58686;BME280;44465;53.206;-6.106;2023-02-28T00:08:31;103591.66;;;20.06;52.59
58686;BME280;44465;53.206;-6.106;2023-02-28T00:11:04;103555.19;;;19.82;52.75
58686;BME280;44465;53.206;-6.106;2023-02-28T00:13:30;103590.75;;;20.03;52.63
58686;BME280;44465;53.206;-6.106;2023-02-28T00:16:01;103580.09;;;19.98;52.57
58686;BME280;44465;53.206;-6.106;2023-02-28T00:18:27;103573.00;;;19.94;52.52
58686;BME280;44465;53.206;-6.106;2023-02-28T00:20:52;103591.72;;;19.95;52.51
58686;BME280;44465;53.206;-6.106;2023-02-28T00:23:18;103594.41;;;19.97;52.68
58686;BME280;44465;53.206;-6.106;2023-02-28T00:25:43;103601.44;;;20.06;52.68
58686;BME280;44465;53.206;-6.106;2023-02-28T00:28:09;103541.06;;;19.67;52.67
58686;BME280;44465;53.206;-6.106;2023-02-28T00:30:34;103594.34;;;20.00;52.53
58686;BME280;44465;53.206;-6.106;2023-02-28T00:33:03;103573.03;;;19.84;52.21
58686;BME280;44465;53.206;-6.106;2023-02-28T00:35:29;103609.47;;;20.06;52.35
58686;BME280;44465;53.206;-6.106;2023-02-28T00:37:54;103606.81;;;20.03;52.38
58686;BME280;44465;53.206;-6.106;2023-02-28T00:40:20;103607.75;;;20.02;52.34
58686;BME280;44465;53.206;-6.106;2023-02-28T00:42:46;103553.50;;;19.70;52.63
58686;BME280;44465;53.206;-6.106;2023-02-28T00:45:12;103592.63;;;19.93;52.50
58686;BME280;44465;53.206;-6.106;2023-02-28T00:47:37;103593.50;;;19.93;52.26
58686;BME280;44465;53.206;-6.106;2023-02-28T00:50:03;103573.94;;;19.83;52.42
58686;BME280;44465;53.206;-6.106;2023-02-28T00:52:29;103576.63;;;19.80;52.40
58686;BME280;44465;53.206;-6.106;2023-02-28T00:54:55;103601.50;;;19.99;52.42
58686;BME280;44465;53.206;-6.106;2023-02-28T00:57:21;103555.28;;;19.68;52.40
58686;BME280;44465;53.206;-6.106;2023-02-28T00:59:47;103590.88;;;19.90;52.39
58686;BME280;44465;53.206;-6.106;2023-02-28T01:02:13;103598.84;;;19.93;52.45
58686;BME280;44465;53.206;-6.106;2023-02-28T01:04:38;103560.63;;;19.71;52.38
58686;BME280;44465;53.206;-6.106;2023-02-28T01:07:04;103583.75;;;19.80;52.32
58686;BME280;44465;53.206;-6.106;2023-02-28T01:09:30;103607.75;;;19.98;52.47
58686;BME280;44465;53.206;-6.106;2023-02-28T01:11:57;103623.78;;;20.02;52.51
58686;BME280;44465;53.206;-6.106;2023-02-28T01:14:23;103627.34;;;20.02;52.29
58686;BME280;44465;53.206;-6.106;2023-02-28T01:16:49;103587.28;;;19.82;52.31
58686;BME280;44465;53.206;-6.106;2023-02-28T01:19:15;103608.66;;;19.94;51.95
58686;BME280;44465;53.206;-6.106;2023-02-28T01:21:41;103592.69;;;19.87;52.43
58686;BME280;44465;53.206;-6.106;2023-02-28T01:24:06;103608.63;;;19.99;51.96
58686;BME280;44465;53.206;-6.106;2023-02-28T01:26:34;103608.66;;;19.96;52.36
58686;BME280;44465;53.206;-6.106;2023-02-28T01:29:00;103602.44;;;19.91;52.20
58686;BME280;44465;53.206;-6.106;2023-02-28T01:31:25;103568.63;;;19.73;52.14
58686;BME280;44465;53.206;-6.106;2023-02-28T01:33:51;103579.31;;;19.79;52.42
58686;BME280;44465;53.206;-6.106;2023-02-28T01:36:19;103614.88;;;19.99;52.26
58686;BME280;44465;53.206;-6.106;2023-02-28T01:38:45;103606.00;;;19.90;52.26
58686;BME280;44465;53.206;-6.106;2023-02-28T01:41:20;103602.44;;;19.91;52.19
58686;BME280;44465;53.206;-6.106;2023-02-28T01:46:13;103590.91;;;19.81;52.11
58686;BME280;44465;53.206;-6.106;2023-02-28T01:48:43;103590.88;;;19.82;52.27
58686;BME280;44465;53.206;-6.106;2023-02-28T01:51:16;103575.75;;;19.74;52.16
58686;BME280;44465;53.206;-6.106;2023-02-28T01:53:47;103590.84;;;19.84;51.85
58686;BME280;44465;53.206;-6.106;2023-02-28T01:56:17;103557.09;;;19.61;51.90
58686;BME280;44465;53.206;-6.106;2023-02-28T01:58:49;103568.66;;;19.71;52.25
58686;BME280;44465;53.206;-6.106;2023-02-28T02:01:16;103603.34;;;19.90;52.14
58686;BME280;44465;53.206;-6.106;2023-02-28T02:04:01;103620.22;;;19.96;52.01
58686;BME280;44465;53.206;-6.106;2023-02-28T02:06:33;103614.88;;;19.98;51.86
58686;BME280;44465;53.206;-6.106;2023-02-28T02:08:59;103605.13;;;19.88;52.09
58686;BME280;44465;53.206;-6.106;2023-02-28T02:11:25;103617.53;;;19.98;52.19
58686;BME280;44465;53.206;-6.106;2023-02-28T02:22:21;103629.16;;;19.95;52.17
58686;BME280;44465;53.206;-6.106;2023-02-28T02:25:24;103615.78;;;19.95;52.03
58686;BME280;44465;53.206;-6.106;2023-02-28T02:30:59;103624.72;;;19.93;52.24
58686;BME280;44465;53.206;-6.106;2023-02-28T02:36:39;103615.84;;;19.89;52.07
58686;BME280;44465;53.206;-6.106;2023-02-28T02:39:19;103606.03;;;19.83;51.92
58686;BME280;44465;53.206;-6.106;2023-02-28T02:41:46;103614.00;;;19.96;52.09
58686;BME280;44465;53.206;-6.106;2023-02-28T02:46:51;103542.94;;;19.51;51.90
58686;BME280;44465;53.206;-6.106;2023-02-28T02:49:28;103617.59;;;19.92;52.35
58686;BME280;44465;53.206;-6.106;2023-02-28T02:51:57;103609.56;;;19.92;51.86
58686;BME280;44465;53.206;-6.106;2023-02-28T02:54:29;103600.66;;;19.91;52.29
58686;BME280;44465;53.206;-6.106;2023-02-28T02:57:01;103606.91;;;19.92;52.26
58686;BME280;44465;53.206;-6.106;2023-02-28T02:59:29;103570.44;;;19.69;52.05
58686;BME280;44465;53.206;-6.106;2023-02-28T03:02:00;103599.78;;;19.88;52.01
58686;BME280;44465;53.206;-6.106;2023-02-28T03:04:33;103536.72;;;19.48;52.07
58686;BME280;44465;53.206;-6.106;2023-02-28T03:07:00;103568.69;;;19.69;51.97
58686;BME280;44465;53.206;-6.106;2023-02-28T03:09:26;103602.44;;;19.88;52.05
58686;BME280;44465;53.206;-6.106;2023-02-28T03:11:54;103558.00;;;19.63;52.26
58686;BME280;44465;53.206;-6.106;2023-02-28T03:14:43;103594.44;;;19.88;52.02
58686;BME280;44465;53.206;-6.106;2023-02-28T03:17:43;103605.09;;;19.94;52.15
58686;BME280;44465;53.206;-6.106;2023-02-28T03:23:13;103551.78;;;19.60;51.87
58686;BME280;44465;53.206;-6.106;2023-02-28T03:25:57;103610.44;;;19.94;51.96
58686;BME280;44465;53.206;-6.106;2023-02-28T03:28:51;103614.03;;;19.93;51.95
58686;BME280;44465;53.206;-6.106;2023-02-28T03:31:22;103608.69;;;19.90;52.11
58686;BME280;44465;53.206;-6.106;2023-02-28T03:34:04;103533.16;;;19.49;51.79
58686;BME280;44465;53.206;-6.106;2023-02-28T03:36:38;103589.97;;;19.83;51.95
58686;BME280;44465;53.206;-6.106;2023-02-28T03:39:17;103613.13;;;19.91;52.08
58686;BME280;44465;53.206;-6.106;2023-02-28T03:41:52;103574.91;;;19.67;52.21
58686;BME280;44465;53.206;-6.106;2023-02-28T03:44:24;103576.69;;;19.71;51.89
58686;BME280;44465;53.206;-6.106;2023-02-28T03:47:00;103561.53;;;19.67;51.95
58686;BME280;44465;53.206;-6.106;2023-02-28T03:49:32;103608.66;;;19.93;51.98
58686;BME280;44465;53.206;-6.106;2023-02-28T03:52:02;103621.13;;;19.97;52.04
58686;BME280;44465;53.206;-6.106;2023-02-28T03:54:35;103563.34;;;19.66;51.73
58686;BME280;44465;53.206;-6.106;2023-02-28T03:59:59;103618.47;;;19.95;51.94
58686;BME280;44465;53.206;-6.106;2023-02-28T04:02:38;103604.22;;;19.89;52.08
58686;BME280;44465;53.206;-6.106;2023-02-28T04:05:05;103576.69;;;19.71;52.21
58686;BME280;44465;53.206;-6.106;2023-02-28T04:07:31;103614.94;;;19.89;52.10
58686;BME280;44465;53.206;-6.106;2023-02-28T04:09:57;103590.88;;;19.76;52.06
58686;BME280;44465;53.206;-6.106;2023-02-28T04:12:23;103617.59;;;19.92;51.82
58686;BME280;44465;53.206;-6.106;2023-02-28T04:14:49;103551.84;;;19.50;51.86
58686;BME280;44465;53.206;-6.106;2023-02-28T04:17:16;103566.94;;;19.61;51.95
58686;BME280;44465;53.206;-6.106;2023-02-28T04:19:42;103566.03;;;19.62;51.91
58686;BME280;44465;53.206;-6.106;2023-02-28T04:22:08;103614.06;;;19.87;52.01
58686;BME280;44465;53.206;-6.106;2023-02-28T04:24:35;103621.16;;;19.88;51.93
58686;BME280;44465;53.206;-6.106;2023-02-28T04:27:01;103598.00;;;19.77;51.99
58686;BME280;44465;53.206;-6.106;2023-02-28T04:29:28;103625.59;;;19.95;52.05
58686;BME280;44465;53.206;-6.106;2023-02-28T04:31:54;103626.53;;;19.84;52.28
58686;BME280;44465;53.206;-6.106;2023-02-28T04:34:21;103626.53;;;19.89;51.99
58686;BME280;44465;53.206;-6.106;2023-02-28T04:36:47;103571.44;;;19.52;51.99
58686;BME280;44465;53.206;-6.106;2023-02-28T04:39:19;103557.19;;;19.47;52.07
58686;BME280;44465;53.206;-6.106;2023-02-28T04:41:45;103595.41;;;19.69;51.54
58686;BME280;44465;53.206;-6.106;2023-02-28T04:44:11;103639.00;;;19.92;51.83
58686;BME280;44465;53.206;-6.106;2023-02-28T04:46:37;103647.00;;;19.92;51.85
58686;BME280;44465;53.206;-6.106;2023-02-28T04:49:03;103615.03;;;19.68;52.00
58686;BME280;44465;53.206;-6.106;2023-02-28T04:51:29;103651.50;;;19.88;51.84
58686;BME280;44465;53.206;-6.106;2023-02-28T04:53:54;103651.50;;;19.87;51.92
58686;BME280;44465;53.206;-6.106;2023-02-28T04:56:20;103625.69;;;19.72;51.93
58686;BME280;44465;53.206;-6.106;2023-02-28T04:58:47;103640.78;;;19.83;52.15
58686;BME280;44465;53.206;-6.106;2023-02-28T05:01:23;103658.59;;;19.88;51.77
58686;BME280;44465;53.206;-6.106;2023-02-28T05:03:50;103649.69;;;19.84;52.06
58686;BME280;44465;53.206;-6.106;2023-02-28T05:06:16;103647.00;;;19.84;51.98
58686;BME280;44465;53.206;-6.106;2023-02-28T05:08:42;103631.94;;;19.72;52.13
58686;BME280;44465;53.206;-6.106;2023-02-28T05:11:14;103614.16;;;19.65;51.83
58686;BME280;44465;53.206;-6.106;2023-02-28T05:13:40;103614.16;;;19.59;51.73
58686;BME280;44465;53.206;-6.106;2023-02-28T05:16:06;103644.38;;;19.78;51.78
58686;BME280;44465;53.206;-6.106;2023-02-28T05:18:32;103631.06;;;19.68;51.72
58686;BME280;44465;53.206;-6.106;2023-02-28T05:20:57;103654.16;;;19.82;51.64
58686;BME280;44465;53.206;-6.106;2023-02-28T05:23:23;103601.72;;;19.45;51.83
58686;BME280;44465;53.206;-6.106;2023-02-28T05:25:49;103685.34;;;19.88;51.63
58686;BME280;44465;53.206;-6.106;2023-02-28T05:28:14;103687.16;;;19.79;51.77
58686;BME280;44465;53.206;-6.106;2023-02-28T05:30:40;103629.34;;;19.47;51.57
58686;BME280;44465;53.206;-6.106;2023-02-28T05:33:05;103666.72;;;19.64;51.76
58686;BME280;44465;53.206;-6.106;2023-02-28T05:35:31;103662.28;;;19.59;51.67
58686;BME280;44465;53.206;-6.106;2023-02-28T05:37:57;103704.06;;;19.83;52.08
58686;BME280;44465;53.206;-6.106;2023-02-28T05:40:22;103630.31;;;19.34;51.71
58686;BME280;44465;53.206;-6.106;2023-02-28T05:42:50;103632.06;;;19.38;51.57
58686;BME280;44465;53.206;-6.106;2023-02-28T05:45:15;103702.28;;;19.82;51.55
58686;BME280;44465;53.206;-6.106;2023-02-28T05:47:42;103638.28;;;19.40;51.81
58686;BME280;44465;53.206;-6.106;2023-02-28T05:50:08;103643.66;;;19.38;51.77
58686;BME280;44465;53.206;-6.106;2023-02-28T05:52:36;103695.22;;;19.70;51.49
58686;BME280;44465;53.206;-6.106;2023-02-28T05:55:01;103696.97;;;19.76;51.69
58686;BME280;44465;53.206;-6.106;2023-02-28T05:57:27;103691.63;;;19.73;51.71
58686;BME280;44465;53.206;-6.106;2023-02-28T05:59:52;103709.44;;;19.81;51.50
58686;BME280;44465;53.206;-6.106;2023-02-28T06:02:18;103688.06;;;19.69;51.62
58686;BME280;44465;53.206;-6.106;2023-02-28T06:04:44;103633.84;;;19.39;51.67
58686;BME280;44465;53.206;-6.106;2023-02-28T06:07:10;103672.03;;;19.66;51.32
58686;BME280;44465;53.206;-6.106;2023-02-28T06:09:36;103705.88;;;19.81;51.71
58686;BME280;44465;53.206;-6.106;2023-02-28T06:12:04;103705.88;;;19.81;51.56
58686;BME280;44465;53.206;-6.106;2023-02-28T06:14:32;103625.84;;;19.34;51.79
58686;BME280;44465;53.206;-6.106;2023-02-28T06:16:58;103680.94;;;19.73;51.55
58686;BME280;44465;53.206;-6.106;2023-02-28T06:19:24;103669.41;;;19.60;51.53
58686;BME280;44465;53.206;-6.106;2023-02-28T06:21:55;103667.63;;;19.62;51.33
58686;BME280;44465;53.206;-6.106;2023-02-28T06:24:24;103696.94;;;19.80;51.45
58686;BME280;44465;53.206;-6.106;2023-02-28T06:26:49;103700.56;;;19.70;51.90
58686;BME280;44465;53.206;-6.106;2023-02-28T06:29:16;103623.19;;;19.33;51.51
58686;BME280;44465;53.206;-6.106;2023-02-28T06:31:46;103701.44;;;19.69;51.80
58686;BME280;44465;53.206;-6.106;2023-02-28T06:34:13;103688.97;;;19.71;51.63
58686;BME280;44465;53.206;-6.106;2023-02-28T06:36:39;103654.28;;;19.49;51.70
58686;BME280;44465;53.206;-6.106;2023-02-28T06:39:05;103655.19;;;19.48;51.51
58686;BME280;44465;53.206;-6.106;2023-02-28T06:41:31;103702.31;;;19.73;51.56
58686;BME280;44465;53.206;-6.106;2023-02-28T06:43:57;103713.00;;;19.80;51.72
58686;BME280;44465;53.206;-6.106;2023-02-28T06:46:22;103676.56;;;19.55;51.48
58686;BME280;44465;53.206;-6.106;2023-02-28T06:48:48;103695.22;;;19.65;51.79
58686;BME280;44465;53.206;-6.106;2023-02-28T06:51:17;103711.22;;;19.72;51.56
58686;BME280;44465;53.206;-6.106;2023-02-28T06:53:43;103667.66;;;19.46;51.69
58686;BME280;44465;53.206;-6.106;2023-02-28T06:56:12;103723.69;;;19.77;51.57
58686;BME280;44465;53.206;-6.106;2023-02-28T06:58:38;103686.38;;;19.48;51.31
58686;BME280;44465;53.206;-6.106;2023-02-28T07:01:05;103700.59;;;19.59;51.44
58686;BME280;44465;53.206;-6.106;2023-02-28T07:03:31;103710.41;;;19.62;51.75
58686;BME280;44465;53.206;-6.106;2023-02-28T07:05:57;103714.84;;;19.67;51.63
58686;BME280;44465;53.206;-6.106;2023-02-28T07:08:23;103702.38;;;19.56;51.58
58686;BME280;44465;53.206;-6.106;2023-02-28T07:10:53;103726.41;;;19.71;51.52
58686;BME280;44465;53.206;-6.106;2023-02-28T07:13:19;103725.53;;;19.71;51.41
58686;BME280;44465;53.206;-6.106;2023-02-28T07:15:54;103707.72;;;19.59;51.47
58686;BME280;44465;53.206;-6.106;2023-02-28T07:18:20;103743.31;;;19.79;51.66
58686;BME280;44465;53.206;-6.106;2023-02-28T07:20:46;103735.28;;;19.76;51.42
58686;BME280;44465;53.206;-6.106;2023-02-28T07:23:11;103667.69;;;19.40;51.99
58686;BME280;44465;53.206;-6.106;2023-02-28T07:25:37;103713.09;;;19.60;51.43
58686;BME280;44465;53.206;-6.106;2023-02-28T07:28:02;103711.28;;;19.58;51.54
58686;BME280;44465;53.206;-6.106;2023-02-28T07:30:27;103734.44;;;19.69;51.79
58686;BME280;44465;53.206;-6.106;2023-02-28T07:32:53;103747.75;;;19.77;51.61
58686;BME280;44465;53.206;-6.106;2023-02-28T07:35:22;103713.09;;;19.54;51.43
58686;BME280;44465;53.206;-6.106;2023-02-28T07:37:47;103723.75;;;19.63;51.67
58686;BME280;44465;53.206;-6.106;2023-02-28T07:40:13;103737.09;;;19.71;51.65
58686;BME280;44465;53.206;-6.106;2023-02-28T07:42:40;103737.09;;;19.71;51.59
58686;BME280;44465;53.206;-6.106;2023-02-28T07:45:09;103713.06;;;19.62;51.72
58686;BME280;44465;53.206;-6.106;2023-02-28T07:47:40;103729.97;;;19.67;51.47
58686;BME280;44465;53.206;-6.106;2023-02-28T07:50:09;103745.13;;;19.71;51.59
58686;BME280;44465;53.206;-6.106;2023-02-28T07:52:36;103689.09;;;19.34;51.83
58686;BME280;44465;53.206;-6.106;2023-02-28T07:55:03;103741.56;;;19.64;51.33
58686;BME280;44465;53.206;-6.106;2023-02-28T07:57:30;103755.81;;;19.71;51.54
58686;BME280;44465;53.206;-6.106;2023-02-28T07:59:55;103756.69;;;19.73;51.20
58686;BME280;44465;53.206;-6.106;2023-02-28T08:02:21;103753.13;;;19.71;51.68
58686;BME280;44465;53.206;-6.106;2023-02-28T08:04:47;103763.84;;;19.74;51.26
58686;BME280;44465;53.206;-6.106;2023-02-28T08:07:13;103698.91;;;19.32;51.48
58686;BME280;44465;53.206;-6.106;2023-02-28T08:09:40;103698.00;;;19.31;51.55
58686;BME280;44465;53.206;-6.106;2023-02-28T08:12:06;103762.94;;;19.75;51.31
58686;BME280;44465;53.206;-6.106;2023-02-28T08:14:33;103770.06;;;19.72;51.28
58686;BME280;44465;53.206;-6.106;2023-02-28T08:16:58;103767.41;;;19.70;51.29
58686;BME280;44465;53.206;-6.106;2023-02-28T08:19:24;103744.28;;;19.53;51.36
58686;BME280;44465;53.206;-6.106;2023-02-28T08:21:49;103779.88;;;19.71;51.17
58686;BME280;44465;53.206;-6.106;2023-02-28T08:24:15;103739.81;;;19.49;51.48
58686;BME280;44465;53.206;-6.106;2023-02-28T08:26:40;103721.16;;;19.34;51.46
58686;BME280;44465;53.206;-6.106;2023-02-28T08:29:06;103791.47;;;19.70;51.17
58686;BME280;44465;53.206;-6.106;2023-02-28T08:31:31;103744.28;;;19.50;51.31
58686;BME280;44465;53.206;-6.106;2023-02-28T08:33:57;103795.00;;;19.77;51.20
58686;BME280;44465;53.206;-6.106;2023-02-28T08:36:24;103778.13;;;19.61;51.52
58686;BME280;44465;53.206;-6.106;2023-02-28T08:38:50;103752.31;;;19.49;51.16
58686;BME280;44465;53.206;-6.106;2023-02-28T08:41:16;103796.78;;;19.78;51.05
58686;BME280;44465;53.206;-6.106;2023-02-28T08:43:41;103778.09;;;19.67;51.14
58686;BME280;44465;53.206;-6.106;2023-02-28T08:46:08;103754.94;;;19.57;51.34
58686;BME280;44465;53.206;-6.106;2023-02-28T08:48:36;103754.09;;;19.47;50.79
58686;BME280;44465;53.206;-6.106;2023-02-28T08:51:10;103756.75;;;19.55;51.17
58686;BME280;44465;53.206;-6.106;2023-02-28T08:53:37;103809.25;;;19.77;51.33
58686;BME280;44465;53.206;-6.106;2023-02-28T08:56:11;103768.31;;;19.58;51.36
58686;BME280;44465;53.206;-6.106;2023-02-28T08:58:37;103771.88;;;19.56;51.14
58686;BME280;44465;53.206;-6.106;2023-02-28T09:01:10;103803.91;;;19.77;51.41
58686;BME280;44465;53.206;-6.106;2023-02-28T09:03:35;103735.41;;;19.34;50.99
58686;BME280;44465;53.206;-6.106;2023-02-28T09:06:01;103803.94;;;19.76;51.29
58686;BME280;44465;53.206;-6.106;2023-02-28T09:08:29;103740.75;;;19.39;51.21
58686;BME280;44465;53.206;-6.106;2023-02-28T09:10:56;103772.78;;;19.55;51.19
58686;BME280;44465;53.206;-6.106;2023-02-28T09:13:24;103803.94;;;19.74;51.12
58686;BME280;44465;53.206;-6.106;2023-02-28T09:15:50;103756.72;;;19.61;51.08
58686;BME280;44465;53.206;-6.106;2023-02-28T09:18:16;103794.13;;;19.73;51.08
58686;BME280;44465;53.206;-6.106;2023-02-28T09:20:42;103798.56;;;19.80;51.00
58686;BME280;44465;53.206;-6.106;2023-02-28T09:23:09;103755.88;;;19.52;51.33
58686;BME280;44465;53.206;-6.106;2023-02-28T09:25:36;103753.19;;;19.51;51.06
58686;BME280;44465;53.206;-6.106;2023-02-28T09:28:02;103747.81;;;19.51;51.41
58686;BME280;44465;53.206;-6.106;2023-02-28T09:30:28;103776.31;;;19.67;51.60
58686;BME280;44465;53.206;-6.106;2023-02-28T09:32:53;103778.09;;;19.70;51.62
58686;BME280;44465;53.206;-6.106;2023-02-28T09:35:20;103771.88;;;19.65;51.54
58686;BME280;44465;53.206;-6.106;2023-02-28T09:37:47;103811.06;;;19.88;51.36
58686;BME280;44465;53.206;-6.106;2023-02-28T09:40:13;103813.72;;;19.92;51.31
58686;BME280;44465;53.206;-6.106;2023-02-28T09:42:40;103785.22;;;19.68;51.54
58686;BME280;44465;53.206;-6.106;2023-02-28T09:45:17;103804.81;;;19.92;51.48
58686;BME280;44465;53.206;-6.106;2023-02-28T09:47:46;103760.25;;;19.66;51.45
58686;BME280;44465;53.206;-6.106;2023-02-28T09:52:48;103807.47;;;19.96;51.48
58686;BME280;44465;53.206;-6.106;2023-02-28T09:57:41;103741.59;;;19.63;50.94
58686;BME280;44465;53.206;-6.106;2023-02-28T10:00:19;103811.00;;;20.05;50.95
58686;BME280;44465;53.206;-6.106;2023-02-28T10:05:27;103807.47;;;19.96;49.55
58686;BME280;44465;53.206;-6.106;2023-02-28T10:08:01;103766.53;;;19.66;50.45
58686;BME280;44465;53.206;-6.106;2023-02-28T10:13:11;103825.28;;;20.02;50.88
58686;BME280;44465;53.206;-6.106;2023-02-28T10:15:38;103814.63;;;19.96;51.11
58686;BME280;44465;53.206;-6.106;2023-02-28T10:18:06;103815.47;;;19.98;50.75
58686;BME280;44465;53.206;-6.106;2023-02-28T10:20:39;103762.97;;;19.71;50.89
58686;BME280;44465;53.206;-6.106;2023-02-28T10:25:47;103810.13;;;20.01;50.91
58686;BME280;44465;53.206;-6.106;2023-02-28T10:28:16;103756.69;;;19.73;50.66
58686;BME280;44465;53.206;-6.106;2023-02-28T10:30:49;103778.03;;;19.84;50.91
58686;BME280;44465;53.206;-6.106;2023-02-28T10:33:35;103786.97;;;19.88;50.68
58686;BME280;44465;53.206;-6.106;2023-02-28T10:36:02;103825.28;;;20.07;50.86
58686;BME280;44465;53.206;-6.106;2023-02-28T10:38:38;103828.84;;;20.09;51.01
58686;BME280;44465;53.206;-6.106;2023-02-28T10:41:12;103777.19;;;19.79;50.80
58686;BME280;44465;53.206;-6.106;2023-02-28T10:43:40;103795.00;;;19.92;50.49
58686;BME280;44465;53.206;-6.106;2023-02-28T10:48:40;103785.22;;;19.87;50.94
58686;BME280;44465;53.206;-6.106;2023-02-28T10:51:13;103821.72;;;20.06;50.92
58686;BME280;44465;53.206;-6.106;2023-02-28T10:53:50;103798.56;;;19.93;50.85
58686;BME280;44465;53.206;-6.106;2023-02-28T10:56:24;103786.97;;;19.84;51.00
58686;BME280;44465;53.206;-6.106;2023-02-28T11:01:21;103774.50;;;19.90;50.84
58686;BME280;44465;53.206;-6.106;2023-02-28T11:03:48;103790.53;;;19.93;50.66
58686;BME280;44465;53.206;-6.106;2023-02-28T11:06:20;103805.66;;;20.08;50.79
58686;BME280;44465;53.206;-6.106;2023-02-28T11:08:49;103782.56;;;19.63;45.63
58686;BME280;44465;53.206;-6.106;2023-02-28T11:11:16;103822.63;;;19.90;49.31
58686;BME280;44465;53.206;-6.106;2023-02-28T11:13:44;103803.03;;;19.88;49.54
58686;BME280;44465;53.206;-6.106;2023-02-28T11:16:12;103785.19;;;19.77;49.85
58686;BME280;44465;53.206;-6.106;2023-02-28T11:21:24;103776.28;;;19.89;50.08
58686;BME280;44465;53.206;-6.106;2023-02-28T11:23:57;103762.91;;;19.81;50.07
58686;BME280;44465;53.206;-6.106;2023-02-28T11:26:40;103785.16;;;19.99;50.04
58686;BME280;44465;53.206;-6.106;2023-02-28T11:29:16;103777.16;;;19.94;50.05
58686;BME280;44465;53.206;-6.106;2023-02-28T11:32:04;103781.63;;;19.94;50.20
58686;BME280;44465;53.206;-6.106;2023-02-28T11:34:31;103804.75;;;20.06;50.50
58686;BME280;44465;53.206;-6.106;2023-02-28T11:36:58;103781.66;;;19.72;48.26
58686;BME280;44465;53.206;-6.106;2023-02-28T11:39:26;103754.94;;;19.57;49.82
58686;BME280;44465;53.206;-6.106;2023-02-28T11:44:59;103794.09;;;19.82;50.10
58686;BME280;44465;53.206;-6.106;2023-02-28T11:56:16;103814.59;;;20.01;50.13
58686;BME280;44465;53.206;-6.106;2023-02-28T11:59:11;103801.25;;;19.90;50.11
58686;BME280;44465;53.206;-6.106;2023-02-28T12:01:43;103821.69;;;20.08;50.22
58686;BME280;44465;53.206;-6.106;2023-02-28T12:04:29;103819.03;;;20.06;50.30
58686;BME280;44465;53.206;-6.106;2023-02-28T12:12:36;103807.44;;;20.01;50.50
58686;BME280;44465;53.206;-6.106;2023-02-28T12:22:50;103808.38;;;19.97;50.58
58686;BME280;44465;53.206;-6.106;2023-02-28T12:27:51;103762.03;;;19.79;50.36
58686;BME280;44465;53.206;-6.106;2023-02-28T12:30:34;103808.34;;;20.06;50.33
58686;BME280;44465;53.206;-6.106;2023-02-28T12:33:15;103817.25;;;20.07;50.46
58686;BME280;44465;53.206;-6.106;2023-02-28T12:35:52;103807.44;;;20.06;50.52
58686;BME280;44465;53.206;-6.106;2023-02-28T12:38:43;103730.00;;;19.59;50.34
58686;BME280;44465;53.206;-6.106;2023-02-28T12:43:52;103765.59;;;19.84;50.37
58686;BME280;44465;53.206;-6.106;2023-02-28T12:46:30;103773.59;;;19.91;50.35
58686;BME280;44465;53.206;-6.106;2023-02-28T12:49:23;103758.47;;;19.88;50.50
58686;BME280;44465;53.206;-6.106;2023-02-28T12:51:45;103756.66;;;19.82;50.28
58686;BME280;44465;53.206;-6.106;2023-02-28T12:59:27;103737.97;;;19.75;50.53
58686;BME280;44465;53.206;-6.106;2023-02-28T13:02:09;103764.72;;;19.90;50.39
58686;BME280;44465;53.206;-6.106;2023-02-28T13:10:00;103735.28;;;19.76;50.50
58686;BME280;44465;53.206;-6.106;2023-02-28T13:12:28;103732.59;;;19.79;50.23
58686;BME280;44465;53.206;-6.106;2023-02-28T13:15:16;103770.88;;;20.06;50.25
58686;BME280;44465;53.206;-6.106;2023-02-28T13:17:49;103719.22;;;19.76;50.34
58686;BME280;44465;53.206;-6.106;2023-02-28T13:20:24;103724.56;;;19.82;50.39
58686;BME280;44465;53.206;-6.106;2023-02-28T13:22:53;103714.78;;;19.81;50.03
58686;BME280;44465;53.206;-6.106;2023-02-28T13:27:53;103741.50;;;19.98;50.10
58686;BME280;44465;53.206;-6.106;2023-02-28T13:33:34;103762.81;;;20.14;50.33
58686;BME280;44465;53.206;-6.106;2023-02-28T13:44:02;103760.16;;;20.12;50.20
58686;BME280;44465;53.206;-6.106;2023-02-28T13:46:29;103753.91;;;20.10;50.21
58686;BME280;44465;53.206;-6.106;2023-02-28T13:48:55;103752.09;;;20.14;49.80
58686;BME280;44465;53.206;-6.106;2023-02-28T13:51:40;103754.78;;;20.12;49.92
58686;BME280;44465;53.206;-6.106;2023-02-28T14:03:19;103755.69;;;20.14;50.02
58686;BME280;44465;53.206;-6.106;2023-02-28T14:06:28;103744.09;;;20.12;49.73
58686;BME280;44465;53.206;-6.106;2023-02-28T14:09:15;103739.63;;;20.13;49.72
58686;BME280;44465;53.206;-6.106;2023-02-28T14:11:43;103725.38;;;20.11;50.16
58686;BME280;44465;53.206;-6.106;2023-02-28T14:15:18;103750.31;;;20.16;49.89
58686;BME280;44465;53.206;-6.106;2023-02-28T14:17:16;103729.81;;;20.13;49.87
58686;BME280;44465;53.206;-6.106;2023-02-28T14:19:45;103745.88;;;20.13;49.83
58686;BME280;44465;53.206;-6.106;2023-02-28T14:25:32;103744.13;;;20.06;49.91
58686;BME280;44465;53.206;-6.106;2023-02-28T14:28:21;103712.09;;;19.91;50.11
58686;BME280;44465;53.206;-6.106;2023-02-28T14:36:46;103735.22;;;20.07;50.02
58686;BME280;44465;53.206;-6.106;2023-02-28T14:39:20;103672.94;;;19.71;49.85
58686;BME280;44465;53.206;-6.106;2023-02-28T14:41:47;103678.28;;;19.71;50.05
58686;BME280;44465;53.206;-6.106;2023-02-28T14:44:18;103691.59;;;19.90;49.84
58686;BME280;44465;53.206;-6.106;2023-02-28T14:46:46;103690.72;;;19.81;49.75
58686;BME280;44465;53.206;-6.106;2023-02-28T14:49:27;103704.06;;;19.91;49.68
58686;BME280;44465;53.206;-6.106;2023-02-28T14:52:06;103719.16;;;20.03;49.87